Terminal Aerodrome Forecast
Issued by NWS

Home | Current Version | Previous Version | Text Only | Print | Product List | Glossary On
Versions: 1 2 3 4 5 6 7 8 9 10 11 12 13 14 15 16
000
FTUS43 KPAH 222215 AAE
TAFCGI
TAF AMD
KCGI 222215Z 2222/2318 15010KT P6SM SCT020 BKN035
     FM230300 17008KT P6SM BKN035
     FM230900 19007KT 5SM SHRA VCTS OVC015CB
     FM231300 18006KT 3SM +SHRA OVC008=

USA.gov is the U.S. government's official web portal to all federal, state and local government web resources and services.